Pagrindinis puslapis
METAR-TAF:

METAR-TAF

Oro uostai :

Burgasas, Bulgarija

platuma: 42-29N, ilguma: 027-29E, Aukštis: 16 m

Dabartinis oras

Ataskaita buvo paskelbta 23 minutes, ne 12:00 UTC
Vėjas 10 kt iš Pietryčių, svyruoja nuo Rytų ir Pietų/Pietvakarių
Temperatūra 23°C
Drėgmė 57%
Slėgis 1009 hPa
Matomumas 10 km arba daugiau
Išsisklaidę debesys ne aukštis 4800 ft

METAR: LBBG 041200Z 14010KT 100V200 9999 SCT048 23/14 Q1009 NOSIG

Laikas: 15:23 (12:23 UTC)

Prognozė

Ataskaita buvo paskelbta 1 valandą ir 23 minutes, ne 11:00 UTC
Prognozė galioja nuo 04 metu 12 UTC su 05 metu 12 UTC
Vėjas 14 kt iš Pietryčių
Matomumas 10 km arba daugiau
Išsisklaidę debesys ne aukštis 4000 ft
Tikimybė 30% :
Laikinai
nuo 04 metu 12 UTC su 04 metu 17 UTC
Matomumas: 5000 m
Mažai debesys ne aukštis 3000 ft, Liūtiniai kamuoliniai debesys.
Su prošvaistėmis ne aukštis 4000 ft
lietus
Tapsmas
nuo 04 metu 18 UTC su 04 metu 20 UTC
Vėjas 4 kt nuo kintamojo kryptimis

TAF: LBBG 041100Z 0412/0512 13014KT 9999 SCT040 PROB30 TEMPO 0412/0417 5000 SHRA FEW030CB BKN040 BECMG 0418/0420 VRB04KT

Orai ataskaitas ir orų prognozės (METAR, TAF).

turimą stotys yra geltonos ir raudonos taškus žemėlapyje.

Perkelti pele per norėdami pamatyti stoties vardą.

Tada spustelėkite, norėdami matyti oro stebėjimo ir prognozės.

Norėdami pakeisti žemėlapį: spustelėkite ant žalios mygtukų su juodo kryžiaus žemyn,; žalią mygtuką su brūkšneliu, jei norite nutolinti; arba žalių rodyklių gretimoms žemėlapius.


METAR-TAF: